Time;durP1;ratioP1;P1;durP2;ratioP2;P2;SDS_P1;SDS_P2;PMS_P1;PMS_P2;Temp;Humidity;BMP_temperature;BMP_pressure;BME280_temperature;BME280_humidity;BME280_pressure;Samples;Min_cycle;Max_cycle;Signal;HPM_P1;HPM_P2
2023/09/14 00:00:56;;;;;;;0.77;0.70;;;11.70;50.20;;;;;;5014082;28;20390;-62
2023/09/14 00:03:22;;;;;;;0.80;0.80;;;11.70;49.10;;;;;;5012518;28;20054;-63
2023/09/14 00:05:49;;;;;;;1.67;0.98;;;11.70;45.60;;;;;;5013718;28;20414;-62
2023/09/14 00:08:19;;;;;;;1.52;0.93;;;11.70;44.70;;;;;;5013678;28;20050;-62
2023/09/14 00:10:56;;;;;;;1.45;1.30;;;11.70;45.20;;;;;;5013746;28;20046;-62
2023/09/14 00:13:22;;;;;;;1.25;0.77;;;13.50;42.30;;;;;;5013898;28;20121;-62
2023/09/14 00:15:48;;;;;;;1.52;0.77;;;13.50;38.80;;;;;;4996209;28;20042;-62
2023/09/14 00:18:14;;;;;;;0.80;0.80;;;11.70;35.80;;;;;;5013831;28;20049;-62
2023/09/14 00:20:40;;;;;;;1.60;1.10;;;11.70;32.60;;;;;;5013785;28;20240;-62
2023/09/14 00:23:15;;;;;;;0.80;0.77;;;11.70;34.40;;;;;;5012275;28;20046;-62
2023/09/14 00:25:43;;;;;;;0.63;0.63;;;11.70;34.40;;;;;;5010528;28;20378;-62
2023/09/14 00:28:09;;;;;;;2.05;1.02;;;11.70;33.70;;;;;;5012372;28;20042;-62
2023/09/14 00:30:35;;;;;;;1.50;1.08;;;12.20;32.80;;;;;;5013340;28;20044;-62
2023/09/14 00:33:04;;;;;;;0.70;0.70;;;11.60;34.40;;;;;;5013660;28;20453;-62
2023/09/14 00:35:30;;;;;;;1.92;0.93;;;11.60;34.30;;;;;;5013518;28;20077;-62
2023/09/14 00:37:56;;;;;;;0.73;0.73;;;13.00;34.80;;;;;;5013592;28;20402;-62
2023/09/14 00:40:23;;;;;;;0.70;0.70;;;11.60;36.40;;;;;;5013441;28;20049;-62
2023/09/14 00:42:53;;;;;;;0.68;0.68;;;11.60;35.00;;;;;;5013203;28;20083;-63
2023/09/14 00:45:20;;;;;;;1.33;0.77;;;11.70;33.80;;;;;;5011888;28;20052;-63
2023/09/14 00:47:57;;;;;;;0.70;0.70;;;11.60;34.20;;;;;;5013100;28;20049;-63
2023/09/14 00:50:23;;;;;;;0.70;0.70;;;11.70;34.60;;;;;;5013499;28;20049;-63
2023/09/14 00:53:02;;;;;;;0.80;0.80;;;11.70;32.10;;;;;;5013467;28;20069;-63
2023/09/14 00:55:32;;;;;;;0.88;0.75;;;11.70;31.70;;;;;;5013359;28;20045;-63
2023/09/14 00:58:01;;;;;;;0.82;0.77;;;11.60;30.30;;;;;;5013475;28;20048;-64
2023/09/14 01:00:28;;;;;;;0.75;0.75;;;11.70;29.80;;;;;;5013296;28;20041;-63
2023/09/14 01:02:55;;;;;;;1.10;0.77;;;11.70;28.90;;;;;;4997398;28;20069;-63
2023/09/14 01:05:21;;;;;;;0.82;0.70;;;11.70;27.50;;;;;;5032256;28;20477;-63
2023/09/14 01:07:47;;;;;;;2.05;1.00;;;11.70;27.80;;;;;;5017281;28;20068;-63
2023/09/14 01:15:58;;;;;;;2.17;1.15;;;11.60;27.70;;;;;;1396357;22;20361;-64
2023/09/14 01:18:31;;;;;;;0.70;0.70;;;11.70;30.40;;;;;;5011398;28;20518;-65
2023/09/14 01:20:57;;;;;;;0.82;0.82;;;11.60;28.60;;;;;;5019151;28;20047;-70
2023/09/14 01:23:41;;;;;;;0.80;0.80;;;11.60;28.60;;;;;;5036711;28;20045;-69
2023/09/14 01:26:08;;;;;;;1.33;1.10;;;11.60;29.70;;;;;;5036628;28;20441;-70
2023/09/14 01:28:34;;;;;;;0.70;0.70;;;11.60;32.50;;;;;;5019280;28;20064;-70
2023/09/14 01:30:59;;;;;;;1.60;1.08;;;11.50;33.40;;;;;;5018745;28;20044;-70
2023/09/14 01:33:27;;;;;;;1.58;0.90;;;11.50;34.90;;;;;;5036304;28;20041;-70
2023/09/14 01:36:16;;;;;;;2.45;0.90;;;11.40;27.80;;;;;;5036470;28;20435;-70
2023/09/14 01:38:44;;;;;;;0.70;0.70;;;11.50;29.60;;;;;;5018345;28;20033;-70
2023/09/14 01:41:10;;;;;;;0.93;0.88;;;11.50;27.50;;;;;;5036359;28;20403;-70
2023/09/14 01:43:37;;;;;;;1.63;0.90;;;11.50;25.90;;;;;;5018389;28;20048;-70
2023/09/14 01:46:04;;;;;;;0.80;0.80;;;11.50;24.10;;;;;;5036208;28;20049;-70
2023/09/14 01:48:29;;;;;;;0.63;0.63;;;11.50;24.60;;;;;;5018224;28;20113;-70
2023/09/14 01:50:55;;;;;;;1.38;0.90;;;11.60;22.00;;;;;;5018579;28;20461;-72
2023/09/14 01:53:20;;;;;;;0.70;0.70;;;11.50;18.30;;;;;;5036148;28;20041;-70
2023/09/14 01:55:46;;;;;;;0.98;0.90;;;11.60;17.40;;;;;;5036135;28;20037;-70
2023/09/14 01:58:12;;;;;;;0.77;0.77;;;11.60;13.50;;;;;;5018395;28;20053;-70
2023/09/14 02:00:38;;;;;;;1.35;0.70;;;11.50;11.40;;;;;;5018041;28;20052;-70
2023/09/14 02:03:04;;;;;;;1.27;0.98;;;11.50;12.70;;;;;;5035775;28;20048;-70
2023/09/14 02:05:29;;;;;;;1.67;1.10;;;11.50;13.00;;;;;;5018008;28;20029;-70
2023/09/14 02:07:55;;;;;;;1.02;0.80;;;11.50;11.30;;;;;;5001435;28;20053;-70
2023/09/14 02:10:22;;;;;;;0.85;0.85;;;11.50;12.40;;;;;;5018267;28;20052;-70
2023/09/14 02:12:48;;;;;;;0.75;0.60;;;11.50;14.40;;;;;;5017983;28;20234;-70
2023/09/14 02:15:15;;;;;;;0.95;0.77;;;11.50;17.30;;;;;;5017910;28;20033;-71
2023/09/14 02:17:40;;;;;;;0.90;0.90;;;11.40;15.90;;;;;;5035440;28;20033;-71
2023/09/14 02:20:08;;;;;;;1.40;0.88;;;11.30;15.30;;;;;;5035828;28;20123;-62
2023/09/14 02:22:34;;;;;;;1.42;1.05;;;11.30;21.20;;;;;;5035320;28;20528;-62
2023/09/14 02:25:00;;;;;;;2.35;1.15;;;11.30;20.10;;;;;;5035337;28;20076;-61
2023/09/14 02:27:25;;;;;;;0.70;0.70;;;11.20;24.10;;;;;;5035423;28;20120;-62
2023/09/14 02:29:55;;;;;;;1.55;0.98;;;11.20;26.00;;;;;;5017795;28;20096;-63
2023/09/14 02:32:21;;;;;;;0.95;0.85;;;11.20;26.40;;;;;;5035349;28;20042;-62
2023/09/14 02:34:48;;;;;;;1.60;1.15;;;11.20;30.70;;;;;;5017332;28;20092;-61
2023/09/14 02:37:14;;;;;;;0.88;0.80;;;12.20;32.10;;;;;;5017260;28;20045;-62
2023/09/14 02:39:39;;;;;;;1.08;0.98;;;11.20;28.50;;;;;;5035069;28;20041;-62
2023/09/14 02:42:05;;;;;;;1.25;1.10;;;11.20;31.80;;;;;;5035512;28;20106;-70
2023/09/14 02:44:30;;;;;;;0.93;0.80;;;11.20;28.00;;;;;;5035114;28;20448;-70
2023/09/14 02:46:56;;;;;;;0.70;0.70;;;11.20;29.20;;;;;;5017181;28;20125;-70
2023/09/14 02:49:22;;;;;;;0.68;0.68;;;11.20;29.70;;;;;;5035148;28;20485;-70
2023/09/14 02:51:47;;;;;;;1.08;0.70;;;11.20;29.80;;;;;;5017042;28;20394;-71
2023/09/14 02:54:14;;;;;;;0.77;0.70;;;11.20;26.00;;;;;;5035127;28;20033;-70
2023/09/14 02:56:40;;;;;;;0.80;0.80;;;11.20;26.80;;;;;;5017224;28;20484;-70
2023/09/14 02:59:06;;;;;;;0.70;0.70;;;11.30;27.30;;;;;;5034649;28;20053;-71
2023/09/14 03:01:32;;;;;;;0.85;0.85;;;11.20;27.00;;;;;;5016835;28;20077;-70
2023/09/14 03:03:58;;;;;;;0.82;0.80;;;11.20;26.80;;;;;;5034838;28;20053;-70
2023/09/14 03:06:25;;;;;;;0.77;0.75;;;11.10;25.60;;;;;;5016798;28;20121;-70
2023/09/14 03:08:51;;;;;;;0.75;0.60;;;11.10;26.10;;;;;;5034823;28;20038;-70
2023/09/14 03:11:16;;;;;;;0.70;0.70;;;11.00;26.30;;;;;;5034544;28;20543;-71
2023/09/14 03:13:42;;;;;;;0.80;0.77;;;11.10;28.80;;;;;;5016732;28;20087;-71
2023/09/14 03:16:07;;;;;;;0.93;0.70;;;11.10;30.60;;;;;;5034411;28;20500;-71
2023/09/14 03:18:33;;;;;;;1.15;0.90;;;11.00;28.70;;;;;;5016859;28;20124;-70
2023/09/14 03:20:59;;;;;;;0.63;0.57;;;11.00;30.70;;;;;;5033130;28;20041;-70
2023/09/14 03:23:25;;;;;;;0.65;0.65;;;10.90;36.70;;;;;;5034137;28;20499;-70
2023/09/14 03:25:50;;;;;;;0.70;0.70;;;10.90;39.60;;;;;;5015868;28;20047;-70
2023/09/14 03:28:17;;;;;;;0.70;0.70;;;10.90;32.90;;;;;;5034324;28;20477;-71
2023/09/14 03:30:43;;;;;;;1.30;1.17;;;10.90;31.50;;;;;;5034117;28;20428;-70
2023/09/14 03:33:10;;;;;;;1.17;0.77;;;10.80;31.80;;;;;;5016540;28;20045;-70
2023/09/14 03:35:36;;;;;;;0.90;0.90;;;10.80;32.90;;;;;;5016483;28;20041;-70
2023/09/14 03:38:02;;;;;;;1.00;0.90;;;10.80;34.70;;;;;;5034221;28;20135;-71
2023/09/14 03:40:28;;;;;;;0.80;0.80;;;10.80;38.80;;;;;;5034206;28;20607;-71
2023/09/14 03:42:53;;;;;;;0.85;0.70;;;10.80;47.10;;;;;;5034175;28;20076;-70
2023/09/14 03:45:19;;;;;;;0.85;0.80;;;10.70;51.70;;;;;;5016587;28;20488;-71
2023/09/14 03:47:45;;;;;;;0.80;0.80;;;10.70;55.10;;;;;;5033867;28;20044;-71
2023/09/14 03:50:10;;;;;;;0.70;0.70;;;10.70;57.10;;;;;;5034077;28;20120;-65
2023/09/14 03:52:36;;;;;;;1.25;0.90;;;10.70;60.70;;;;;;5033983;28;20033;-74
2023/09/14 03:55:03;;;;;;;2.20;0.90;;;10.70;60.20;;;;;;5016059;28;20036;-70
2023/09/14 03:57:29;;;;;;;0.88;0.88;;;10.70;57.40;;;;;;5016225;28;20042;-70
2023/09/14 03:59:55;;;;;;;1.27;0.88;;;11.00;57.30;;;;;;5015937;28;20496;-69
2023/09/14 04:02:21;;;;;;;1.65;1.13;;;10.60;56.20;;;;;;5015953;28;20128;-70
2023/09/14 04:04:47;;;;;;;0.90;0.90;;;10.60;54.90;;;;;;5033542;28;20400;-71
2023/09/14 04:07:12;;;;;;;1.00;0.88;;;10.60;54.70;;;;;;4999363;28;20049;-71
2023/09/14 04:09:38;;;;;;;0.98;0.80;;;10.60;53.60;;;;;;5033453;28;20512;-71
2023/09/14 04:12:04;;;;;;;1.25;0.80;;;10.60;51.60;;;;;;5015436;28;20447;-70
2023/09/14 04:14:30;;;;;;;0.73;0.70;;;10.50;51.20;;;;;;4999323;28;20049;-69
2023/09/14 04:16:57;;;;;;;0.80;0.80;;;10.50;54.00;;;;;;5033066;28;20046;-71
2023/09/14 04:19:27;;;;;;;0.90;0.90;;;10.70;54.00;;;;;;5033460;28;20037;-70
2023/09/14 04:21:52;;;;;;;1.15;0.82;;;10.50;53.70;;;;;;4999247;28;20087;-72
2023/09/14 04:24:19;;;;;;;0.73;0.73;;;10.50;52.60;;;;;;5015407;28;20516;-69
2023/09/14 04:26:44;;;;;;;1.67;0.90;;;10.50;54.00;;;;;;5015360;28;20045;-69
2023/09/14 04:29:10;;;;;;;0.77;0.77;;;10.40;57.40;;;;;;5033298;28;20485;-68
2023/09/14 04:31:36;;;;;;;1.70;0.90;;;10.40;59.90;;;;;;5015654;28;20528;-70
2023/09/14 04:34:02;;;;;;;2.25;1.10;;;10.40;59.90;;;;;;4998944;28;20072;-70
2023/09/14 04:36:27;;;;;;;1.45;0.82;;;10.30;63.00;;;;;;5032659;28;20420;-71
2023/09/14 04:38:53;;;;;;;2.28;1.30;;;10.30;66.70;;;;;;5014901;28;20060;-71
2023/09/14 04:41:19;;;;;;;0.70;0.70;;;10.30;68.20;;;;;;5032793;28;20507;-70
2023/09/14 04:43:44;;;;;;;0.88;0.88;;;10.30;69.80;;;;;;4998795;28;20077;-71
2023/09/14 04:46:10;;;;;;;1.10;1.00;;;10.30;67.90;;;;;;5015177;28;20037;-70
2023/09/14 04:48:38;;;;;;;1.08;0.88;;;10.30;74.30;;;;;;5033081;28;20033;-70
2023/09/14 04:51:03;;;;;;;1.77;0.70;;;10.20;73.30;;;;;;5015158;28;20045;-70
2023/09/14 04:53:30;;;;;;;0.70;0.70;;;10.10;74.10;;;;;;5015055;28;20033;-70
2023/09/14 04:55:56;;;;;;;0.65;0.63;;;10.10;72.30;;;;;;5015049;28;20041;-69
2023/09/14 04:58:22;;;;;;;0.98;0.82;;;10.10;72.80;;;;;;5033084;28;20037;-70
2023/09/14 05:00:51;;;;;;;1.45;1.00;;;10.00;73.30;;;;;;5015428;28;20041;-64
2023/09/14 05:03:18;;;;;;;1.13;0.82;;;10.00;71.90;;;;;;5015353;28;20045;-65
2023/09/14 05:05:48;;;;;;;0.93;0.93;;;10.10;71.30;;;;;;5032927;28;20069;-65
2023/09/14 05:08:14;;;;;;;0.65;0.65;;;10.00;72.20;;;;;;5032953;28;20129;-65
2023/09/14 05:10:39;;;;;;;0.77;0.68;;;10.00;72.00;;;;;;5015217;28;20073;-62
2023/09/14 05:13:05;;;;;;;1.13;0.90;;;10.00;69.40;;;;;;5032881;28;20033;-62
2023/09/14 05:15:31;;;;;;;1.00;0.80;;;10.00;67.20;;;;;;4998754;28;20058;-62
2023/09/14 05:17:56;;;;;;;0.70;0.70;;;10.00;66.60;;;;;;5032846;28;20093;-61
2023/09/14 05:20:22;;;;;;;1.23;0.80;;;10.00;67.50;;;;;;5032475;28;20041;-61
2023/09/14 05:22:47;;;;;;;1.17;1.08;;;10.00;68.50;;;;;;5032731;28;20054;-62
2023/09/14 05:25:14;;;;;;;0.85;0.85;;;10.00;70.60;;;;;;5015065;28;20124;-61
2023/09/14 05:27:40;;;;;;;0.70;0.70;;;10.00;70.60;;;;;;5032613;28;20049;-61
2023/09/14 05:30:10;;;;;;;0.60;0.60;;;10.00;69.90;;;;;;5032770;28;20083;-62
2023/09/14 05:32:36;;;;;;;0.60;0.60;;;10.00;72.00;;;;;;5032742;28;20092;-62
2023/09/14 05:35:02;;;;;;;0.82;0.80;;;10.10;71.30;;;;;;5014776;28;20045;-62
2023/09/14 05:37:28;;;;;;;0.70;0.70;;;10.00;69.60;;;;;;5032616;28;20080;-61
2023/09/14 05:39:54;;;;;;;0.82;0.80;;;10.10;67.10;;;;;;5032363;28;20033;-62
2023/09/14 05:42:21;;;;;;;0.68;0.68;;;10.10;67.20;;;;;;5032650;28;20047;-62
2023/09/14 05:44:48;;;;;;;0.85;0.85;;;10.10;72.00;;;;;;5032536;28;20040;-62
2023/09/14 05:47:14;;;;;;;1.73;0.90;;;10.10;72.50;;;;;;5032500;28;20125;-61
2023/09/14 05:49:40;;;;;;;0.73;0.73;;;10.20;72.40;;;;;;5035017;28;20064;-62
2023/09/14 05:52:06;;;;;;;0.80;0.80;;;10.20;70.30;;;;;;5018258;28;20045;-61
2023/09/14 05:54:31;;;;;;;1.00;0.85;;;10.20;67.60;;;;;;5001931;28;20038;-61
2023/09/14 05:56:57;;;;;;;1.02;0.70;;;10.20;64.30;;;;;;5036137;28;20037;-61
2023/09/14 05:59:22;;;;;;;0.98;0.90;;;10.20;65.00;;;;;;5018428;28;20034;-61
2023/09/14 06:01:48;;;;;;;0.73;0.73;;;10.20;63.20;;;;;;5036132;28;20124;-61
2023/09/14 06:04:13;;;;;;;1.00;1.00;;;10.20;57.90;;;;;;5018024;28;20046;-61
2023/09/14 06:06:39;;;;;;;1.38;0.70;;;10.30;56.60;;;;;;5018076;28;20556;-61
2023/09/14 06:09:05;;;;;;;0.85;0.85;;;10.30;57.30;;;;;;5035883;28;20086;-61
2023/09/14 06:11:31;;;;;;;1.63;0.77;;;10.40;57.50;;;;;;5035747;28;20048;-61
2023/09/14 06:13:57;;;;;;;0.60;0.60;;;10.40;57.10;;;;;;5036100;28;20039;-61
2023/09/14 06:16:22;;;;;;;1.13;0.88;;;10.70;56.80;;;;;;5035134;28;20154;-61
2023/09/14 06:18:48;;;;;;;0.85;0.73;;;10.50;51.80;;;;;;5035611;28;20124;-61
2023/09/14 06:21:13;;;;;;;0.98;0.90;;;10.60;48.30;;;;;;5035670;28;20065;-61
2023/09/14 06:23:40;;;;;;;2.88;0.98;;;10.70;49.30;;;;;;5017523;28;20038;-61
2023/09/14 06:26:06;;;;;;;1.00;0.80;;;10.70;44.90;;;;;;5035476;28;20073;-61
2023/09/14 06:28:31;;;;;;;0.70;0.70;;;10.80;43.50;;;;;;5017414;28;20088;-61
2023/09/14 06:30:58;;;;;;;0.80;0.80;;;11.00;37.20;;;;;;5035180;28;20164;-61
2023/09/14 06:33:23;;;;;;;0.90;0.80;;;11.00;27.00;;;;;;5035408;28;20473;-62
2023/09/14 06:35:49;;;;;;;0.65;0.65;;;11.10;23.00;;;;;;5035388;28;20095;-61
2023/09/14 06:38:15;;;;;;;0.70;0.70;;;11.30;20.30;;;;;;5035317;28;20044;-61
2023/09/14 06:40:40;;;;;;;1.33;0.90;;;11.30;14.70;;;;;;5035321;28;20443;-60
2023/09/14 06:43:06;;;;;;;0.55;0.55;;;11.50;6.20;;;;;;5017219;28;20053;-61
2023/09/14 06:45:33;;;;;;;0.70;0.70;;;11.60;1.00;;;;;;5035114;28;20037;-61
2023/09/14 06:47:59;;;;;;;1.58;0.95;;;11.70;1.00;;;;;;5017109;28;20056;-61
2023/09/14 06:50:24;;;;;;;0.70;0.70;;;11.80;1.00;;;;;;5035183;28;20037;-61
2023/09/14 06:52:50;;;;;;;1.05;0.80;;;11.90;1.00;;;;;;5034866;28;20053;-61
2023/09/14 06:55:16;;;;;;;1.35;1.05;;;12.10;1.00;;;;;;5000730;28;20053;-61
2023/09/14 06:57:42;;;;;;;1.45;0.95;;;12.20;1.00;;;;;;5016883;28;20451;-61
2023/09/14 07:00:14;;;;;;;1.13;0.70;;;12.30;1.00;;;;;;5034005;28;20045;-61
2023/09/14 07:02:41;;;;;;;0.68;0.68;;;12.40;1.00;;;;;;5017186;28;20048;-61
2023/09/14 07:05:08;;;;;;;1.38;0.80;;;12.50;1.00;;;;;;5016908;28;20068;-61
2023/09/14 07:07:33;;;;;;;1.30;0.85;;;12.60;1.00;;;;;;5016665;28;20049;-61
2023/09/14 07:09:59;;;;;;;1.77;0.80;;;12.70;1.00;;;;;;5034751;28;20029;-62
2023/09/14 07:12:24;;;;;;;0.73;0.60;;;12.80;1.00;;;;;;5034803;28;20057;-64
2023/09/14 07:14:50;;;;;;;0.73;0.70;;;12.90;1.00;;;;;;5034629;28;20495;-64
2023/09/14 07:17:16;;;;;;;1.73;0.98;;;13.10;1.00;;;;;;5016514;28;20420;-65
2023/09/14 07:19:42;;;;;;;0.70;0.70;;;13.00;99.90;;;;;;5016704;28;20520;-65
2023/09/14 07:22:08;;;;;;;0.77;0.70;;;13.30;99.90;;;;;;5016672;28;20084;-66
2023/09/14 07:24:33;;;;;;;0.68;0.60;;;13.40;99.90;;;;;;5016538;28;20056;-66
2023/09/14 07:26:59;;;;;;;1.40;0.90;;;13.40;99.90;;;;;;5016447;28;20045;-65
2023/09/14 07:29:26;;;;;;;0.70;0.70;;;13.70;99.90;;;;;;5034131;28;20095;-66
2023/09/14 07:31:52;;;;;;;0.68;0.68;;;13.80;99.90;;;;;;5034487;28;20047;-61
2023/09/14 07:34:18;;;;;;;1.13;0.60;;;13.90;99.90;;;;;;5016283;28;20041;-62
2023/09/14 07:36:44;;;;;;;0.82;0.82;;;14.00;99.90;;;;;;5034012;28;20041;-61
2023/09/14 07:39:10;;;;;;;1.05;0.95;;;14.10;99.90;;;;;;5016208;28;20049;-61
2023/09/14 07:41:36;;;;;;;0.63;0.50;;;14.30;99.90;;;;;;5033866;28;20052;-62
2023/09/14 07:44:02;;;;;;;0.82;0.82;;;14.40;99.90;;;;;;5033907;28;20048;-61
2023/09/14 07:46:27;;;;;;;1.17;0.68;;;14.40;99.90;;;;;;5033658;28;20033;-61
2023/09/14 07:48:53;;;;;;;0.98;0.70;;;14.60;1.00;;;;;;5034058;28;20047;-61
2023/09/14 07:51:18;;;;;;;1.05;0.85;;;14.60;27.70;;;;;;5016353;28;20088;-62
2023/09/14 07:53:44;;;;;;;0.80;0.80;;;14.70;99.90;;;;;;5033919;28;20084;-62
2023/09/14 07:56:10;;;;;;;0.85;0.77;;;15.40;99.90;;;;;;5033948;28;20121;-61
2023/09/14 07:58:35;;;;;;;0.70;0.70;;;14.80;1.00;;;;;;5016257;28;20345;-64
2023/09/14 08:01:01;;;;;;;1.23;0.57;;;15.00;1.00;;;;;;5033771;28;20037;-61
2023/09/14 08:03:27;;;;;;;2.05;1.00;;;15.10;99.90;;;;;;5033434;28;20041;-62
2023/09/14 08:05:53;;;;;;;0.85;0.68;;;15.20;99.90;;;;;;5016006;28;20378;-62
2023/09/14 08:08:19;;;;;;;0.60;0.60;;;15.30;99.90;;;;;;5033299;28;20049;-64
2023/09/14 08:10:49;;;;;;;0.73;0.70;;;15.40;1.00;;;;;;5015797;28;20038;-62
2023/09/14 08:13:15;;;;;;;0.85;0.70;;;15.50;99.90;;;;;;5015612;28;20136;-62
2023/09/14 08:15:41;;;;;;;0.60;0.50;;;15.60;99.90;;;;;;5033230;28;20053;-62
2023/09/14 08:18:06;;;;;;;0.95;0.80;;;15.60;1.00;;;;;;5033411;28;20124;-62
2023/09/14 08:20:35;;;;;;;0.88;0.82;;;15.70;1.00;;;;;;5015510;28;20068;-63
2023/09/14 08:23:01;;;;;;;1.38;0.80;;;15.80;99.90;;;;;;5015676;28;20480;-63
2023/09/14 08:25:26;;;;;;;1.23;0.70;;;16.30;99.90;;;;;;5015433;28;20052;-63
2023/09/14 08:27:52;;;;;;;1.10;0.70;;;15.90;99.90;;;;;;5015355;28;20076;-63
2023/09/14 08:30:18;;;;;;;1.00;0.60;;;16.00;99.90;;;;;;5015707;28;20053;-63
2023/09/14 08:32:43;;;;;;;0.50;0.50;;;16.00;99.90;;;;;;5033416;28;20041;-66
2023/09/14 08:35:36;;;;;;;1.15;0.95;;;16.10;99.90;;;;;;5033271;28;20045;-66
2023/09/14 08:38:06;;;;;;;1.27;0.80;;;16.20;30.80;;;;;;5031272;28;20390;-66
2023/09/14 08:40:32;;;;;;;0.40;0.40;;;16.30;99.90;;;;;;5032728;28;20052;-66
2023/09/14 08:43:00;;;;;;;0.80;0.52;;;16.30;72.00;;;;;;5033298;28;20407;-66
2023/09/14 08:45:31;;;;;;;1.90;0.68;;;16.40;1.00;;;;;;5015209;28;20049;-65
2023/09/14 08:47:59;;;;;;;0.63;0.60;;;16.40;4.70;;;;;;5033185;28;20033;-66
2023/09/14 08:50:30;;;;;;;1.25;0.75;;;16.50;1.00;;;;;;5033146;28;20049;-66
2023/09/14 08:52:56;;;;;;;1.00;0.57;;;16.50;6.20;;;;;;5033084;28;20176;-66
2023/09/14 08:55:24;;;;;;;0.70;0.70;;;16.50;10.00;;;;;;5033105;28;20034;-66
2023/09/14 08:57:51;;;;;;;1.38;0.82;;;16.60;3.70;;;;;;5032827;28;20045;-66
2023/09/14 09:00:18;;;;;;;1.33;0.70;;;16.60;1.00;;;;;;5032781;28;20042;-65
2023/09/14 09:02:46;;;;;;;1.35;0.80;;;16.60;1.00;;;;;;5032790;28;20132;-66
2023/09/14 09:05:12;;;;;;;1.08;0.75;;;16.90;1.00;;;;;;5032949;28;20087;-66
2023/09/14 09:07:40;;;;;;;1.08;0.65;;;16.80;1.00;;;;;;5032470;28;20140;-66
2023/09/14 09:10:16;;;;;;;0.65;0.52;;;16.80;1.00;;;;;;5032988;28;20041;-66
2023/09/14 09:12:42;;;;;;;3.25;1.27;;;16.80;1.00;;;;;;5033010;28;20041;-66
2023/09/14 09:15:09;;;;;;;1.15;0.70;;;16.90;1.00;;;;;;5032405;28;20037;-67
2023/09/14 09:17:41;;;;;;;1.25;1.02;;;16.90;1.00;;;;;;5014859;28;20100;-66
2023/09/14 09:20:24;;;;;;;1.23;0.70;;;16.90;1.00;;;;;;5032521;28;20081;-66
2023/09/14 09:22:51;;;;;;;1.30;0.88;;;16.90;1.00;;;;;;5032826;28;20123;-66
2023/09/14 09:25:18;;;;;;;0.40;0.40;;;16.90;1.00;;;;;;5018674;28;20139;-66
2023/09/14 09:27:44;;;;;;;1.13;0.57;;;16.90;1.00;;;;;;5036527;28;20393;-66
2023/09/14 09:30:11;;;;;;;1.85;1.08;;;16.90;1.00;;;;;;5018654;28;20077;-66
2023/09/14 09:32:37;;;;;;;0.43;0.43;;;16.90;1.00;;;;;;5036548;28;20037;-66
2023/09/14 09:35:17;;;;;;;0.90;0.65;;;16.80;1.00;;;;;;5036548;28;20046;-66
2023/09/14 09:37:43;;;;;;;1.25;0.98;;;17.00;1.00;;;;;;5018790;28;20500;-66
2023/09/14 09:40:20;;;;;;;2.47;0.73;;;17.20;1.00;;;;;;5036487;28;20160;-66
2023/09/14 09:42:46;;;;;;;1.27;0.88;;;17.00;1.00;;;;;;5036474;28;20041;-65
2023/09/14 09:45:13;;;;;;;1.17;0.80;;;18.10;1.00;;;;;;5018333;28;20515;-63
2023/09/14 09:47:39;;;;;;;1.15;0.70;;;17.10;1.00;;;;;;5036212;28;20424;-63
2023/09/14 09:50:07;;;;;;;1.23;0.90;;;17.10;1.00;;;;;;5035994;28;20048;-63
2023/09/14 09:52:34;;;;;;;1.50;0.77;;;17.00;1.00;;;;;;5018362;28;20104;-66
2023/09/14 09:54:59;;;;;;;1.05;0.57;;;17.00;1.00;;;;;;5036238;28;20038;-66
2023/09/14 09:57:37;;;;;;;0.65;0.65;;;17.00;1.00;;;;;;5036183;28;20111;-66
2023/09/14 10:00:13;;;;;;;2.97;1.15;;;17.20;1.00;;;;;;5018120;28;20132;-66
2023/09/14 10:02:41;;;;;;;1.15;0.73;;;17.30;99.90;;;;;;5018001;28;20053;-66
2023/09/14 10:05:08;;;;;;;1.13;0.60;;;17.40;99.90;;;;;;5018101;28;20071;-66
2023/09/14 10:07:39;;;;;;;1.48;0.85;;;17.40;99.90;;;;;;5035591;28;20061;-66
2023/09/14 10:10:09;;;;;;;0.40;0.40;;;17.50;99.90;;;;;;5035926;28;20073;-66
2023/09/14 10:12:39;;;;;;;3.35;0.68;;;17.70;99.90;;;;;;5018167;28;20050;-66
2023/09/14 10:15:06;;;;;;;0.98;0.68;;;17.70;99.90;;;;;;5017691;28;20046;-66
2023/09/14 10:17:32;;;;;;;1.15;0.50;;;18.00;99.90;;;;;;5035985;28;20076;-66
2023/09/14 10:19:59;;;;;;;1.13;0.80;;;18.50;1.00;;;;;;5018022;28;20042;-66
2023/09/14 10:22:26;;;;;;;0.77;0.45;;;18.60;1.00;;;;;;5035479;28;20052;-66
2023/09/14 10:24:53;;;;;;;0.75;0.75;;;;;;;;;;5035630;28;20116;-66
2023/09/14 10:27:18;;;;;;;0.68;0.60;;;18.60;99.90;;;;;;5035531;28;20042;-66
2023/09/14 10:29:44;;;;;;;1.20;0.88;;;18.60;99.90;;;;;;5035134;28;20385;-66
2023/09/14 10:32:11;;;;;;;1.05;0.50;;;18.70;99.90;;;;;;5035522;28;20041;-66
2023/09/14 10:34:39;;;;;;;0.75;0.50;;;18.70;99.90;;;;;;5035191;28;20029;-65
2023/09/14 10:37:06;;;;;;;0.60;0.60;;;18.80;99.90;;;;;;5035469;28;20052;-65
2023/09/14 10:39:33;;;;;;;0.70;0.70;;;18.90;99.90;;;;;;5035378;28;20044;-66
2023/09/14 10:41:59;;;;;;;1.85;0.70;;;19.00;99.90;;;;;;5035350;28;20611;-66
2023/09/14 10:44:27;;;;;;;1.45;0.65;;;19.10;99.90;;;;;;5017232;28;20057;-66
2023/09/14 10:46:56;;;;;;;1.35;0.73;;;19.30;99.90;;;;;;5035135;28;20037;-66
2023/09/14 10:49:29;;;;;;;0.80;0.57;;;19.30;99.90;;;;;;5017470;28;20063;-66
2023/09/14 10:51:55;;;;;;;0.63;0.43;;;19.90;99.90;;;;;;5035153;28;20041;-66
2023/09/14 10:54:31;;;;;;;0.55;0.50;;;19.30;99.90;;;;;;5016798;28;20067;-66
2023/09/14 10:57:00;;;;;;;0.38;0.35;;;19.30;99.90;;;;;;5034852;28;20525;-66
2023/09/14 10:59:49;;;;;;;0.45;0.45;;;19.30;99.90;;;;;;5034823;28;20045;-67
2023/09/14 11:02:36;;;;;;;0.55;0.50;;;19.20;99.90;;;;;;5034858;28;20049;-66
2023/09/14 11:05:19;;;;;;;0.70;0.55;;;19.30;99.90;;;;;;5034770;28;20041;-66
2023/09/14 11:07:53;;;;;;;1.17;0.73;;;19.40;99.90;;;;;;5016540;28;20489;-66
2023/09/14 11:10:20;;;;;;;1.58;0.85;;;19.30;99.90;;;;;;5034559;28;20045;-66
2023/09/14 11:12:46;;;;;;;2.20;0.88;;;19.40;99.90;;;;;;5034580;28;20378;-66
2023/09/14 11:15:22;;;;;;;0.82;0.60;;;19.30;99.90;;;;;;5016523;28;20044;-66
2023/09/14 11:17:57;;;;;;;1.10;0.73;;;19.20;99.90;;;;;;5000191;28;20057;-66
2023/09/14 11:20:22;;;;;;;2.72;0.85;;;19.00;99.90;;;;;;5034196;28;20064;-66
2023/09/14 11:22:49;;;;;;;1.15;0.70;;;18.80;99.90;;;;;;5016302;28;20042;-66
2023/09/14 11:25:36;;;;;;;0.77;0.70;;;18.70;99.90;;;;;;5033963;28;20036;-66
2023/09/14 11:28:21;;;;;;;0.85;0.60;;;18.70;99.90;;;;;;5034017;28;20413;-65
2023/09/14 11:30:48;;;;;;;1.25;0.80;;;18.70;99.90;;;;;;5033939;28;20037;-64
2023/09/14 11:33:15;;;;;;;1.23;0.77;;;18.70;99.90;;;;;;5034145;28;20041;-64
2023/09/14 11:35:45;;;;;;;0.65;0.52;;;18.70;99.90;;;;;;5016260;28;20037;-64
2023/09/14 11:38:23;;;;;;;0.70;0.60;;;18.50;99.90;;;;;;5034006;28;20121;-64
2023/09/14 11:40:49;;;;;;;1.65;0.75;;;18.30;99.90;;;;;;5033682;28;20077;-64
2023/09/14 11:43:26;;;;;;;1.10;0.60;;;18.10;99.90;;;;;;5033995;28;20041;-65
2023/09/14 11:45:56;;;;;;;1.33;0.80;;;18.10;99.90;;;;;;5015379;28;20094;-64
2023/09/14 11:48:23;;;;;;;1.75;0.77;;;18.00;99.90;;;;;;5033541;28;20492;-64
2023/09/14 11:50:50;;;;;;;0.85;0.68;;;17.90;99.90;;;;;;5033773;28;20044;-64
2023/09/14 11:53:17;;;;;;;0.55;0.40;;;17.70;99.90;;;;;;5016076;28;20042;-64
2023/09/14 11:55:48;;;;;;;0.85;0.60;;;17.80;99.90;;;;;;5033372;28;20033;-64
2023/09/14 11:58:14;;;;;;;0.75;0.73;;;17.70;99.90;;;;;;5033730;28;20049;-64
2023/09/14 12:00:45;;;;;;;1.80;1.00;;;17.50;99.90;;;;;;5015663;28;20068;-64
2023/09/14 12:03:11;;;;;;;0.55;0.55;;;17.60;99.90;;;;;;5033409;28;20042;-64
2023/09/14 12:05:37;;;;;;;0.40;0.40;;;17.70;99.90;;;;;;5033614;28;20034;-64
2023/09/14 12:08:17;;;;;;;0.73;0.68;;;17.90;99.90;;;;;;5015573;28;20073;-64
2023/09/14 12:10:45;;;;;;;1.85;0.57;;;18.10;99.90;;;;;;5033482;28;20037;-63
2023/09/14 12:13:15;;;;;;;1.10;0.40;;;18.30;99.90;;;;;;5033204;28;20099;-64
2023/09/14 12:15:46;;;;;;;1.08;0.73;;;18.50;99.90;;;;;;5033256;28;20081;-64
2023/09/14 12:18:12;;;;;;;1.23;0.70;;;18.60;99.90;;;;;;5015415;28;20045;-64
2023/09/14 12:20:43;;;;;;;0.82;0.60;;;18.60;99.90;;;;;;5015391;28;20365;-64
2023/09/14 12:23:11;;;;;;;1.17;0.50;;;18.60;99.90;;;;;;5015278;28;20381;-64
2023/09/14 12:25:38;;;;;;;0.88;0.60;;;18.60;99.90;;;;;;5033246;28;20107;-64
2023/09/14 12:28:07;;;;;;;0.77;0.68;;;18.60;99.90;;;;;;5015194;28;20072;-64
2023/09/14 12:30:33;;;;;;;0.90;0.60;;;18.60;99.90;;;;;;5032824;28;20041;-64
2023/09/14 12:33:02;;;;;;;1.73;0.70;;;18.60;99.90;;;;;;5033081;28;20037;-64
2023/09/14 12:35:28;;;;;;;1.15;0.90;;;18.50;99.90;;;;;;5033110;28;20389;-64
2023/09/14 12:38:03;;;;;;;0.80;0.68;;;18.40;99.90;;;;;;5033123;28;20087;-64
2023/09/14 12:40:36;;;;;;;0.80;0.55;;;18.30;99.90;;;;;;5032996;28;20056;-63
2023/09/14 12:43:03;;;;;;;1.45;0.70;;;18.20;99.90;;;;;;5015324;28;20476;-64
2023/09/14 12:45:31;;;;;;;0.98;0.50;;;18.20;99.90;;;;;;5015004;28;20057;-64
2023/09/14 12:47:56;;;;;;;0.52;0.52;;;18.40;99.90;;;;;;5032663;28;20484;-64
2023/09/14 12:50:27;;;;;;;1.83;0.80;;;18.20;99.90;;;;;;5032943;28;20037;-64
2023/09/14 12:52:53;;;;;;;0.90;0.80;;;18.20;99.90;;;;;;5032896;28;20039;-64
2023/09/14 12:55:19;;;;;;;1.42;0.60;;;18.30;99.90;;;;;;5032928;28;20112;-64